Time;durP1;ratioP1;P1;durP2;ratioP2;P2;SDS_P1;SDS_P2;PMS_P1;PMS_P2;Temp;Humidity;BMP_temperature;BMP_pressure;BME280_temperature;BME280_humidity;BME280_pressure;Samples;Min_cycle;Max_cycle;Signal;HPM_P1;HPM_P2
2022/08/03 00:02:09;;;;;;;20.98;15.77;;;;;;;;;;6260219;28;20056;-60
2022/08/03 00:05:09;;;;;;;19.73;16.07;;;;;;;;;;6263441;28;20053;-60
2022/08/03 00:08:10;;;;;;;21.07;16.13;;;;;;;;;;6263148;28;20427;-59
2022/08/03 00:11:10;;;;;;;20.45;15.80;;;;;;;;;;6260847;28;20053;-60
2022/08/03 00:14:11;;;;;;;20.80;16.40;;;;;;;;;;6260231;28;20866;-60
2022/08/03 00:17:11;;;;;;;38.67;15.23;;;;;;;;;;6263072;28;20064;-60
2022/08/03 00:20:12;;;;;;;20.53;15.80;;;;;;;;;;6262135;28;20055;-60
2022/08/03 00:23:13;;;;;;;19.67;15.90;;;;;;;;;;6257091;28;20083;-59
2022/08/03 00:26:13;;;;;;;19.55;15.93;;;;;;;;;;6262418;28;20049;-60
2022/08/03 00:29:14;;;;;;;22.40;16.13;;;;;;;;;;6262282;28;20045;-59
2022/08/03 00:32:14;;;;;;;20.00;15.32;;;;;;;;;;6258029;28;20052;-60
2022/08/03 00:35:15;;;;;;;22.07;15.47;;;;;;;;;;6261189;28;20068;-60
2022/08/03 00:38:16;;;;;;;20.20;16.37;;;;;;;;;;6261115;28;20470;-61
2022/08/03 00:41:16;;;;;;;19.98;16.15;;;;;;;;;;6260149;28;20079;-59
2022/08/03 00:44:17;;;;;;;21.65;16.83;;;;;;;;;;6258444;28;20534;-60
2022/08/03 00:47:17;;;;;;;21.67;17.13;;;;;;;;;;6263332;28;20052;-60
2022/08/03 00:50:21;;;;;;;22.17;16.10;;;;;;;;;;6260958;28;20053;-60
2022/08/03 00:53:23;;;;;;;19.30;15.13;;;;;;;;;;6259650;28;20102;-60
2022/08/03 00:56:24;;;;;;;19.50;15.77;;;;;;;;;;6259643;28;20102;-58
2022/08/03 00:59:24;;;;;;;20.98;15.98;;;;;;;;;;6255735;28;20045;-61
2022/08/03 01:02:27;;;;;;;17.15;13.70;;;;;;;;;;6249470;28;20049;-63
2022/08/03 01:05:28;;;;;;;24.38;16.73;;;;;;;;;;6254010;28;20037;-63
2022/08/03 01:08:57;;;;;;;23.10;16.60;;;;;;;;;;6253218;28;20038;-60
2022/08/03 01:12:14;;;;;;;23.08;17.55;;;;;;;;;;6251844;28;20064;-58
2022/08/03 01:15:19;;;;;;;23.60;17.73;;;;;;;;;;6251196;28;20071;-61
2022/08/03 01:18:48;;;;;;;24.48;17.77;;;;;;;;;;6253872;28;20049;-61
2022/08/03 01:22:04;;;;;;;25.00;16.13;;;;;;;;;;6251771;28;20187;-60
2022/08/03 01:25:52;;;;;;;22.50;16.83;;;;;;;;;;6250830;28;20051;-61
2022/08/03 01:29:07;;;;;;;24.05;17.17;;;;;;;;;;6249574;28;20127;-59
2022/08/03 01:32:13;;;;;;;22.35;17.70;;;;;;;;;;6255592;28;20048;-61
2022/08/03 01:35:35;;;;;;;25.63;17.80;;;;;;;;;;6279856;28;20048;-61
2022/08/03 01:38:42;;;;;;;25.58;17.42;;;;;;;;;;6281021;28;20048;-61
2022/08/03 01:41:52;;;;;;;23.13;17.13;;;;;;;;;;6275735;28;20135;-61
2022/08/03 01:44:55;;;;;;;24.42;16.52;;;;;;;;;;6272359;28;20139;-60
2022/08/03 01:47:57;;;;;;;20.55;16.15;;;;;;;;;;6291141;28;20072;-61
2022/08/03 01:50:58;;;;;;;23.80;17.30;;;;;;;;;;6290947;28;20051;-61
2022/08/03 01:54:00;;;;;;;21.20;16.77;;;;;;;;;;6289315;28;20111;-58
2022/08/03 01:57:01;;;;;;;22.67;16.97;;;;;;;;;;6291268;28;20503;-59
2022/08/03 02:00:03;;;;;;;22.08;16.75;;;;;;;;;;6291453;28;20066;-59
2022/08/03 02:03:06;;;;;;;23.00;17.05;;;;;;;;;;6289729;28;20471;-61
2022/08/03 02:06:09;;;;;;;22.17;16.85;;;;;;;;;;6286190;28;20049;-59
2022/08/03 02:09:12;;;;;;;23.70;16.55;;;;;;;;;;6270018;28;20095;-62
2022/08/03 02:12:13;;;;;;;22.40;16.85;;;;;;;;;;6269899;28;20123;-62
2022/08/03 02:15:15;;;;;;;20.70;15.40;;;;;;;;;;6266289;28;20103;-61
2022/08/03 02:18:17;;;;;;;26.40;17.23;;;;;;;;;;6268279;28;20389;-61
2022/08/03 02:21:18;;;;;;;21.65;16.60;;;;;;;;;;6270468;28;20056;-62
2022/08/03 02:24:19;;;;;;;26.02;19.05;;;;;;;;;;6264697;28;20152;-62
2022/08/03 02:27:26;;;;;;;25.75;19.23;;;;;;;;;;6268437;28;20048;-56
2022/08/03 02:30:38;;;;;;;24.73;17.83;;;;;;;;;;6283914;28;20044;-61
2022/08/03 02:33:42;;;;;;;20.75;16.38;;;;;;;;;;6289263;28;20052;-62
2022/08/03 02:36:49;;;;;;;21.88;16.90;;;;;;;;;;6288052;28;20049;-58
2022/08/03 02:39:53;;;;;;;23.73;17.02;;;;;;;;;;6285364;28;20497;-62
2022/08/03 02:42:57;;;;;;;18.17;14.27;;;;;;;;;;6287583;28;20056;-60
2022/08/03 02:45:58;;;;;;;33.95;15.63;;;;;;;;;;6292671;28;20384;-60
2022/08/03 02:49:01;;;;;;;20.35;16.05;;;;;;;;;;6293937;28;20094;-61
2022/08/03 02:52:04;;;;;;;26.27;18.70;;;;;;;;;;6287994;28;20182;-61
2022/08/03 02:55:06;;;;;;;21.02;15.65;;;;;;;;;;6292269;28;20105;-61
2022/08/03 02:58:07;;;;;;;22.85;16.52;;;;;;;;;;6286362;28;20059;-62
2022/08/03 03:01:09;;;;;;;23.52;16.98;;;;;;;;;;6289357;28;20098;-61
2022/08/03 03:04:10;;;;;;;;;;;;;;;;;;6292443;28;20052;-59
2022/08/03 03:07:16;;;;;;;23.55;17.42;;;;;;;;;;6283634;28;19924;-61
2022/08/03 03:10:17;;;;;;;24.77;18.65;;;;;;;;;;6279911;28;20108;-61
2022/08/03 03:13:20;;;;;;;22.17;17.23;;;;;;;;;;6283836;28;20662;-61
2022/08/03 03:16:21;;;;;;;22.48;17.02;;;;;;;;;;6293071;28;20399;-61
2022/08/03 03:19:24;;;;;;;23.67;16.73;;;;;;;;;;6266770;28;20065;-61
2022/08/03 03:22:26;;;;;;;24.27;17.02;;;;;;;;;;6273013;28;20056;-59
2022/08/03 03:25:30;;;;;;;;;;;;;;;;;;6263570;28;20550;-62
2022/08/03 03:28:31;;;;;;;23.80;16.92;;;;;;;;;;6269083;28;19925;-57
2022/08/03 03:31:32;;;;;;;21.07;15.77;;;;;;;;;;6272208;28;20139;-57
2022/08/03 03:34:32;;;;;;;24.58;17.83;;;;;;;;;;6267069;28;20649;-62
2022/08/03 03:37:33;;;;;;;55.13;40.90;;;;;;;;;;6269345;28;20072;-61
2022/08/03 03:40:35;;;;;;;42.10;32.58;;;;;;;;;;6267248;28;20064;-61
2022/08/03 03:43:35;;;;;;;32.85;24.30;;;;;;;;;;6268463;28;20039;-61
2022/08/03 03:46:37;;;;;;;23.70;15.75;;;;;;;;;;6270176;28;20049;-62
2022/08/03 03:49:39;;;;;;;23.58;17.23;;;;;;;;;;6263905;28;20046;-61
2022/08/03 03:52:40;;;;;;;22.77;16.13;;;;;;;;;;6269372;28;20232;-59
2022/08/03 03:55:41;;;;;;;21.40;16.02;;;;;;;;;;6267539;28;20067;-62
2022/08/03 03:58:41;;;;;;;20.98;16.35;;;;;;;;;;6265612;28;20479;-59
2022/08/03 04:01:42;;;;;;;34.80;18.15;;;;;;;;;;6265891;28;20084;-59
2022/08/03 04:11:40;;;;;;;52.40;23.63;;;;;;;;;;6267372;28;20057;-61
2022/08/03 04:14:41;;;;;;;52.70;24.67;;;;;;;;;;6267251;28;20128;-61
2022/08/03 04:17:43;;;;;;;58.65;25.52;;;;;;;;;;6268613;28;20128;-61
2022/08/03 04:20:45;;;;;;;;;;;;;;;;;;6267524;28;20058;-61
2022/08/03 04:23:48;;;;;;;58.53;26.30;;;;;;;;;;6262932;28;20348;-59
2022/08/03 04:26:50;;;;;;;82.47;29.50;;;;;;;;;;6264680;28;20469;-61
2022/08/03 04:29:52;;;;;;;79.13;27.47;;;;;;;;;;6265623;28;20124;-61
2022/08/03 04:32:56;;;;;;;89.53;28.38;;;;;;;;;;6258820;28;20381;-59
2022/08/03 04:35:58;;;;;;;52.85;28.80;;;;;;;;;;6268229;28;20131;-61
2022/08/03 04:39:30;;;;;;;47.20;27.48;;;;;;;;;;6266919;28;20483;-60
2022/08/03 04:42:32;;;;;;;49.40;30.43;;;;;;;;;;6267069;28;20587;-61
2022/08/03 04:45:34;;;;;;;55.20;30.27;;;;;;;;;;6260735;28;20045;-61
2022/08/03 04:48:34;;;;;;;58.88;31.90;;;;;;;;;;6257252;28;20480;-62
2022/08/03 04:51:37;;;;;;;60.15;37.05;;;;;;;;;;6294888;28;20451;-62
2022/08/03 04:54:42;;;;;;;45.65;27.23;;;;;;;;;;6261901;28;20041;-62
2022/08/03 04:57:42;;;;;;;47.40;28.13;;;;;;;;;;6268063;28;20555;-63
2022/08/03 05:00:44;;;;;;;50.47;31.15;;;;;;;;;;6265621;28;20045;-60
2022/08/03 05:03:45;;;;;;;50.05;30.60;;;;;;;;;;6264541;28;20051;-62
2022/08/03 05:06:46;;;;;;;53.78;30.98;;;;;;;;;;6266228;28;20488;-62
2022/08/03 05:09:46;;;;;;;49.03;30.30;;;;;;;;;;6266920;28;20051;-62
2022/08/03 05:12:47;;;;;;;49.17;30.92;;;;;;;;;;6263592;28;20518;-61
2022/08/03 05:15:48;;;;;;;46.50;31.27;;;;;;;;;;6258339;28;20472;-62
2022/08/03 05:18:48;;;;;;;55.13;32.03;;;;;;;;;;6272431;28;20045;-62
2022/08/03 05:21:49;;;;;;;47.30;31.55;;;;;;;;;;6285956;28;20048;-60
2022/08/03 05:24:50;;;;;;;49.53;32.00;;;;;;;;;;6276220;28;20052;-61
2022/08/03 05:27:50;;;;;;;61.10;44.75;;;;;;;;;;6275790;28;20192;-59
2022/08/03 05:30:51;;;;;;;43.17;29.47;;;;;;;;;;6286947;28;20458;-61
2022/08/03 05:33:51;;;;;;;44.67;30.23;;;;;;;;;;6273380;28;20052;-60
2022/08/03 05:36:52;;;;;;;47.27;30.67;;;;;;;;;;6285237;28;20032;-60
2022/08/03 05:39:52;;;;;;;40.67;30.00;;;;;;;;;;6283938;28;20136;-61
2022/08/03 05:42:53;;;;;;;42.30;30.57;;;;;;;;;;6287858;28;20608;-62
2022/08/03 05:45:54;;;;;;;42.00;31.53;;;;;;;;;;6284622;28;20088;-59
2022/08/03 05:48:54;;;;;;;44.20;31.63;;;;;;;;;;6262957;28;20045;-62
2022/08/03 05:51:55;;;;;;;45.23;33.27;;;;;;;;;;6266206;28;20059;-61
2022/08/03 05:54:55;;;;;;;50.63;39.30;;;;;;;;;;6272448;28;20088;-62
2022/08/03 05:57:56;;;;;;;40.97;29.57;;;;;;;;;;6268663;28;20139;-62
2022/08/03 06:00:56;;;;;;;41.87;30.70;;;;;;;;;;6281445;28;20567;-62
2022/08/03 06:03:57;;;;;;;47.70;32.50;;;;;;;;;;6285327;28;20041;-62
2022/08/03 06:06:57;;;;;;;40.43;28.67;;;;;;;;;;6272272;28;20102;-61
2022/08/03 06:10:01;;;;;;;38.43;27.87;;;;;;;;;;6269847;28;20066;-61
2022/08/03 06:13:01;;;;;;;37.40;27.38;;;;;;;;;;6265853;28;20049;-62
2022/08/03 06:16:02;;;;;;;38.33;27.40;;;;;;;;;;6276857;28;20470;-59
2022/08/03 06:19:03;;;;;;;35.00;25.63;;;;;;;;;;6280785;28;20036;-60
2022/08/03 06:22:04;;;;;;;35.60;26.47;;;;;;;;;;6290160;28;20036;-63
2022/08/03 06:25:06;;;;;;;37.60;26.90;;;;;;;;;;6288353;28;20097;-60
2022/08/03 06:28:06;;;;;;;37.17;26.17;;;;;;;;;;6283037;28;20159;-61
2022/08/03 06:31:07;;;;;;;32.00;24.40;;;;;;;;;;6280128;28;20098;-62
2022/08/03 06:34:07;;;;;;;28.87;22.07;;;;;;;;;;6264310;28;20045;-59
2022/08/03 06:37:08;;;;;;;30.47;23.10;;;;;;;;;;6268341;28;20059;-58
2022/08/03 06:40:11;;;;;;;29.77;23.03;;;;;;;;;;6267558;28;20045;-61
2022/08/03 06:43:13;;;;;;;33.08;23.25;;;;;;;;;;6269686;28;20045;-59
2022/08/03 06:46:15;;;;;;;28.55;22.90;;;;;;;;;;6265316;28;20103;-62
2022/08/03 06:49:15;;;;;;;30.77;22.92;;;;;;;;;;6266370;28;20090;-58
2022/08/03 06:52:16;;;;;;;26.73;22.43;;;;;;;;;;6262957;28;20110;-60
2022/08/03 06:55:16;;;;;;;29.10;22.67;;;;;;;;;;6268522;28;20455;-62
2022/08/03 06:58:17;;;;;;;28.43;22.23;;;;;;;;;;6271495;28;20495;-61
2022/08/03 07:01:17;;;;;;;28.67;23.63;;;;;;;;;;6265042;28;20056;-62
2022/08/03 07:04:18;;;;;;;26.57;21.70;;;;;;;;;;6260672;28;20079;-61
2022/08/03 07:07:19;;;;;;;26.00;20.60;;;;;;;;;;6264646;28;20065;-59
2022/08/03 07:10:20;;;;;;;25.85;21.35;;;;;;;;;;6262993;28;20128;-61
2022/08/03 07:13:20;;;;;;;24.87;20.27;;;;;;;;;;6264305;28;20448;-59
2022/08/03 07:16:21;;;;;;;25.57;21.03;;;;;;;;;;6266903;28;20057;-62
2022/08/03 07:19:22;;;;;;;27.37;20.63;;;;;;;;;;6268021;28;20053;-63
2022/08/03 07:22:22;;;;;;;24.50;20.73;;;;;;;;;;6263029;28;20302;-63
2022/08/03 07:25:24;;;;;;;26.80;21.50;;;;;;;;;;6265311;28;20049;-62
2022/08/03 07:28:24;;;;;;;25.13;20.55;;;;;;;;;;6267853;28;20131;-62
2022/08/03 07:31:25;;;;;;;28.20;21.83;;;;;;;;;;6284540;28;20105;-62
2022/08/03 07:34:26;;;;;;;29.00;20.27;;;;;;;;;;6274477;28;20045;-61
2022/08/03 07:37:27;;;;;;;25.77;21.20;;;;;;;;;;6264781;28;20416;-61
2022/08/03 07:40:28;;;;;;;25.42;20.45;;;;;;;;;;6283567;28;20132;-60
2022/08/03 07:43:29;;;;;;;28.10;20.63;;;;;;;;;;6288664;28;20109;-61
2022/08/03 07:46:29;;;;;;;22.60;18.00;;;;;;;;;;6275755;28;20047;-63
2022/08/03 07:49:30;;;;;;;21.63;16.47;;;;;;;;;;6287431;28;20048;-59
2022/08/03 07:56:04;;;;;;;22.55;16.15;;;;;;;;;;6258944;28;20056;-62
2022/08/03 07:59:04;;;;;;;20.30;14.97;;;;;;;;;;6290610;28;20044;-60
2022/08/03 08:02:06;;;;;;;21.53;14.60;;;;;;;;;;6284494;28;20047;-61
2022/08/03 08:05:07;;;;;;;23.83;15.85;;;;;;;;;;6281189;28;20128;-63
2022/08/03 08:08:07;;;;;;;17.00;14.37;;;;;;;;;;6278949;28;20458;-61
2022/08/03 08:11:08;;;;;;;28.30;12.97;;;;;;;;;;6267150;28;20134;-59
2022/08/03 08:14:09;;;;;;;16.93;12.43;;;;;;;;;;6283447;28;20052;-63
2022/08/03 08:17:09;;;;;;;14.63;11.83;;;;;;;;;;6286708;28;20090;-60
2022/08/03 08:20:14;;;;;;;14.50;12.30;;;;;;;;;;6281582;28;20053;-62
2022/08/03 08:23:16;;;;;;;15.35;11.43;;;;;;;;;;6277929;28;20550;-62
2022/08/03 08:26:16;;;;;;;15.57;12.40;;;;;;;;;;6266181;28;20041;-59
2022/08/03 08:29:21;;;;;;;18.57;13.17;;;;;;;;;;6276646;28;20395;-63
2022/08/03 08:32:22;;;;;;;15.60;12.60;;;;;;;;;;6284379;28;20138;-62
2022/08/03 08:35:23;;;;;;;19.47;12.20;;;;;;;;;;6287920;28;20041;-58
2022/08/03 08:38:23;;;;;;;16.60;13.03;;;;;;;;;;6284472;28;20048;-60
2022/08/03 08:41:24;;;;;;;17.07;13.77;;;;;;;;;;6282629;28;20168;-58
2022/08/03 08:44:25;;;;;;;19.07;14.37;;;;;;;;;;6277494;28;20052;-63
2022/08/03 08:47:30;;;;;;;22.20;17.50;;;;;;;;;;6276607;28;20090;-61
2022/08/03 08:50:31;;;;;;;24.70;17.50;;;;;;;;;;6264620;28;20048;-60
2022/08/03 08:53:37;;;;;;;23.27;17.92;;;;;;;;;;6254379;28;20052;-61
2022/08/03 08:56:38;;;;;;;20.73;15.88;;;;;;;;;;6252604;28;20143;-63
2022/08/03 08:59:39;;;;;;;26.33;18.10;;;;;;;;;;6253009;28;20056;-63
2022/08/03 09:02:43;;;;;;;26.53;19.43;;;;;;;;;;6256002;28;20048;-59
2022/08/03 09:05:44;;;;;;;25.98;18.80;;;;;;;;;;6251059;28;20175;-60
2022/08/03 09:08:44;;;;;;;25.83;18.23;;;;;;;;;;6250076;28;20049;-59
2022/08/03 09:11:47;;;;;;;27.37;19.53;;;;;;;;;;6250990;28;20156;-60
2022/08/03 09:14:48;;;;;;;28.38;18.83;;;;;;;;;;6249797;28;20049;-59
2022/08/03 09:17:50;;;;;;;26.20;18.05;;;;;;;;;;6261639;28;20051;-59
2022/08/03 09:21:10;;;;;;;26.25;18.95;;;;;;;;;;6251241;28;20043;-60
2022/08/03 09:24:11;;;;;;;31.92;22.33;;;;;;;;;;6252770;28;20055;-62
2022/08/03 09:27:12;;;;;;;30.20;21.37;;;;;;;;;;6250929;28;20050;-63
2022/08/03 09:30:17;;;;;;;26.88;19.35;;;;;;;;;;6250525;28;20045;-59
2022/08/03 09:33:18;;;;;;;28.55;19.63;;;;;;;;;;6254866;28;20049;-60
2022/08/03 09:36:42;;;;;;;27.10;19.80;;;;;;;;;;6249906;28;20424;-62
2022/08/03 09:39:44;;;;;;;24.30;17.95;;;;;;;;;;6246847;28;20401;-61
2022/08/03 09:42:57;;;;;;;29.83;23.05;;;;;;;;;;6253453;28;20053;-62
2022/08/03 09:46:06;;;;;;;25.15;18.75;;;;;;;;;;6255446;28;20068;-59
2022/08/03 09:49:12;;;;;;;28.17;20.92;;;;;;;;;;6254379;28;20205;-58
2022/08/03 09:52:17;;;;;;;26.65;19.30;;;;;;;;;;6256926;28;20549;-60
2022/08/03 09:55:19;;;;;;;24.60;18.17;;;;;;;;;;6261049;28;20486;-64
2022/08/03 09:58:21;;;;;;;24.98;18.10;;;;;;;;;;6268565;28;20946;-61
2022/08/03 10:01:31;;;;;;;22.35;16.15;;;;;;;;;;6265599;28;20144;-60
2022/08/03 10:04:32;;;;;;;20.02;15.80;;;;;;;;;;6264762;28;20052;-60
2022/08/03 10:07:49;;;;;;;21.23;17.00;;;;;;;;;;6262283;28;20114;-60
2022/08/03 10:10:55;;;;;;;20.27;15.18;;;;;;;;;;6248412;28;20052;-62
2022/08/03 10:13:56;;;;;;;22.65;16.35;;;;;;;;;;6249680;28;20131;-61
2022/08/03 10:16:56;;;;;;;24.27;17.87;;;;;;;;;;6259130;28;20063;-62
2022/08/03 10:19:58;;;;;;;20.30;16.70;;;;;;;;;;6248150;28;20045;-60
2022/08/03 10:23:00;;;;;;;19.88;16.15;;;;;;;;;;6246196;28;20053;-60
2022/08/03 10:26:03;;;;;;;21.02;16.42;;;;;;;;;;6252769;28;20095;-63
2022/08/03 10:29:10;;;;;;;23.02;17.63;;;;;;;;;;6255073;28;20049;-59
2022/08/03 10:32:24;;;;;;;22.65;17.33;;;;;;;;;;6254955;28;20053;-64
2022/08/03 10:35:25;;;;;;;20.83;16.88;;;;;;;;;;6249297;28;20060;-64
2022/08/03 10:38:36;;;;;;;23.08;17.75;;;;;;;;;;6253769;28;20439;-62
2022/08/03 10:41:39;;;;;;;20.65;16.80;;;;;;;;;;6260543;28;20504;-61
2022/08/03 10:44:41;;;;;;;21.40;17.10;;;;;;;;;;6269810;28;20055;-57
2022/08/03 10:47:41;;;;;;;;;;;;;;;;;;6268884;28;20378;-60
2022/08/03 10:50:43;;;;;;;22.70;17.20;;;;;;;;;;6267996;28;20019;-62
2022/08/03 10:53:43;;;;;;;22.85;17.70;;;;;;;;;;6265343;28;20049;-62
2022/08/03 11:00:05;;;;;;;23.65;18.02;;;;;;;;;;6266211;28;20044;-60
2022/08/03 11:03:08;;;;;;;21.63;17.20;;;;;;;;;;6271524;28;20048;-64
2022/08/03 11:06:17;;;;;;;24.17;17.98;;;;;;;;;;6281703;28;20052;-64
2022/08/03 11:09:18;;;;;;;24.42;18.30;;;;;;;;;;6272350;28;20066;-63
2022/08/03 11:12:21;;;;;;;24.23;19.00;;;;;;;;;;6271833;28;20382;-64
2022/08/03 11:15:33;;;;;;;46.08;38.67;;;;;;;;;;6267715;28;20148;-61
2022/08/03 11:18:33;;;;;;;24.05;19.83;;;;;;;;;;6264167;28;20523;-62
2022/08/03 11:21:52;;;;;;;25.77;17.30;;;;;;;;;;6280731;28;20049;-62
2022/08/03 11:24:53;;;;;;;18.45;15.10;;;;;;;;;;6270442;28;20045;-63
2022/08/03 11:28:27;;;;;;;18.23;14.63;;;;;;;;;;6256124;28;20068;-63
2022/08/03 11:31:28;;;;;;;22.38;17.60;;;;;;;;;;6272476;28;20072;-61
2022/08/03 11:34:29;;;;;;;38.45;31.83;;;;;;;;;;6279683;28;20498;-62
2022/08/03 11:37:29;;;;;;;18.23;15.67;;;;;;;;;;6284418;28;20044;-61
2022/08/03 11:40:48;;;;;;;22.23;18.13;;;;;;;;;;6268347;28;20053;-61
2022/08/03 11:43:48;;;;;;;18.92;15.75;;;;;;;;;;6277134;28;20133;-61
2022/08/03 11:46:49;;;;;;;23.67;19.80;;;;;;;;;;6268576;28;20561;-60
2022/08/03 11:49:52;;;;;;;21.10;16.50;;;;;;;;;;6272130;28;20112;-59
2022/08/03 11:52:53;;;;;;;22.75;18.70;;;;;;;;;;6265879;28;20691;-62
2022/08/03 11:55:58;;;;;;;21.42;18.10;;;;;;;;;;6264388;28;20493;-61
2022/08/03 11:58:59;;;;;;;21.50;17.02;;;;;;;;;;6262034;28;20051;-60
2022/08/03 12:02:07;;;;;;;25.57;19.77;;;;;;;;;;6273772;28;20049;-59
2022/08/03 12:05:07;;;;;;;21.50;19.20;;;;;;;;;;6271820;28;20044;-60
2022/08/03 12:08:10;;;;;;;24.57;19.00;;;;;;;;;;6276421;28;20040;-60
2022/08/03 12:11:13;;;;;;;19.48;17.35;;;;;;;;;;6270048;28;20547;-61
2022/08/03 12:14:20;;;;;;;19.75;17.08;;;;;;;;;;6273160;28;20049;-60
2022/08/03 12:17:20;;;;;;;20.10;16.88;;;;;;;;;;6269088;28;20132;-59
2022/08/03 12:20:27;;;;;;;18.77;16.63;;;;;;;;;;6270876;28;20094;-60
2022/08/03 12:23:27;;;;;;;21.10;17.60;;;;;;;;;;6276682;28;20658;-61
2022/08/03 12:26:40;;;;;;;18.37;15.67;;;;;;;;;;6273506;28;20060;-60
2022/08/03 12:29:41;;;;;;;17.27;14.73;;;;;;;;;;6265332;28;20308;-61
2022/08/03 12:32:43;;;;;;;17.90;15.53;;;;;;;;;;6265800;28;20044;-61
2022/08/03 12:35:43;;;;;;;17.67;15.05;;;;;;;;;;6263041;28;20136;-62
2022/08/03 12:38:54;;;;;;;18.60;15.47;;;;;;;;;;6264046;28;20037;-60
2022/08/03 12:41:55;;;;;;;17.48;15.45;;;;;;;;;;6266533;28;20057;-60
2022/08/03 12:44:56;;;;;;;18.02;15.68;;;;;;;;;;6274977;28;20505;-60
2022/08/03 12:48:01;;;;;;;18.55;16.58;;;;;;;;;;6273682;28;20377;-62
2022/08/03 12:51:09;;;;;;;20.58;16.20;;;;;;;;;;6272106;28;20550;-62
2022/08/03 12:54:21;;;;;;;20.77;16.38;;;;;;;;;;6253387;28;20041;-58
2022/08/03 12:57:22;;;;;;;22.77;20.15;;;;;;;;;;6257237;28;20061;-57
2022/08/03 13:00:25;;;;;;;19.23;17.23;;;;;;;;;;6262075;28;20411;-58
2022/08/03 13:03:26;;;;;;;19.23;16.45;;;;;;;;;;6260105;28;20436;-57
2022/08/03 13:06:26;;;;;;;19.88;16.67;;;;;;;;;;6262895;28;20059;-58
2022/08/03 13:09:30;;;;;;;19.37;16.63;;;;;;;;;;6260695;28;20052;-57
2022/08/03 13:12:31;;;;;;;21.15;17.02;;;;;;;;;;6258951;28;20083;-58
2022/08/03 13:15:31;;;;;;;19.73;16.73;;;;;;;;;;6261187;28;20491;-57
2022/08/03 13:18:32;;;;;;;20.23;17.40;;;;;;;;;;6259313;28;20404;-59
2022/08/03 13:21:32;;;;;;;19.20;16.37;;;;;;;;;;6263371;28;20056;-57
2022/08/03 13:24:33;;;;;;;20.80;17.33;;;;;;;;;;6268209;28;20056;-58
2022/08/03 13:27:34;;;;;;;19.00;17.00;;;;;;;;;;6262885;28;21112;-57
2022/08/03 13:30:34;;;;;;;18.17;16.27;;;;;;;;;;6261456;28;20126;-58
2022/08/03 13:33:35;;;;;;;19.27;17.27;;;;;;;;;;6262791;28;20313;-60
2022/08/03 13:36:36;;;;;;;19.08;16.80;;;;;;;;;;6255711;28;20529;-59
2022/08/03 13:39:37;;;;;;;18.20;16.30;;;;;;;;;;6262597;28;20045;-58
2022/08/03 13:42:38;;;;;;;;;;;;;;;;;;6262773;28;20143;-57
2022/08/03 13:45:38;;;;;;;19.00;16.13;;;;;;;;;;6257112;28;19928;-58
2022/08/03 13:48:39;;;;;;;18.60;16.63;;;;;;;;;;6260756;28;20113;-59
2022/08/03 13:51:39;;;;;;;17.90;16.07;;;;;;;;;;6259908;28;20061;-57
2022/08/03 13:54:40;;;;;;;18.58;16.20;;;;;;;;;;6257050;28;20055;-59
2022/08/03 13:57:41;;;;;;;18.95;15.77;;;;;;;;;;6258003;28;20518;-59
2022/08/03 14:00:41;;;;;;;19.63;15.90;;;;;;;;;;6263409;28;20210;-58
2022/08/03 14:03:42;;;;;;;18.63;15.50;;;;;;;;;;6259171;28;21066;-57
2022/08/03 14:06:44;;;;;;;19.35;14.43;;;;;;;;;;6267341;28;20511;-61
2022/08/03 14:09:44;;;;;;;17.55;15.60;;;;;;;;;;6269785;28;20037;-59
2022/08/03 14:12:45;;;;;;;18.02;15.50;;;;;;;;;;6261055;28;20068;-60
2022/08/03 14:15:46;;;;;;;23.80;14.97;;;;;;;;;;6264569;28;20063;-59
2022/08/03 14:18:46;;;;;;;17.45;15.45;;;;;;;;;;6265045;28;20475;-60
2022/08/03 14:21:47;;;;;;;17.17;14.93;;;;;;;;;;6267956;28;20072;-61
2022/08/03 14:24:48;;;;;;;17.85;16.05;;;;;;;;;;6269105;28;20045;-61
2022/08/03 14:27:48;;;;;;;18.43;16.53;;;;;;;;;;6266771;28;20049;-60
2022/08/03 14:30:54;;;;;;;19.05;17.00;;;;;;;;;;6265176;28;20079;-62
2022/08/03 14:33:55;;;;;;;18.05;15.20;;;;;;;;;;6266463;28;20099;-59
2022/08/03 14:36:55;;;;;;;26.23;22.20;;;;;;;;;;6262499;28;20036;-61
2022/08/03 14:39:56;;;;;;;19.30;15.23;;;;;;;;;;6262997;28;20065;-62
2022/08/03 14:42:56;;;;;;;20.20;16.27;;;;;;;;;;6263881;28;21203;-62
2022/08/03 14:45:57;;;;;;;17.57;15.30;;;;;;;;;;6262108;28;20061;-60
2022/08/03 14:48:58;;;;;;;17.35;15.55;;;;;;;;;;6269904;28;20591;-59
2022/08/03 14:51:58;;;;;;;17.48;14.98;;;;;;;;;;6267006;28;20045;-59
2022/08/03 14:55:00;;;;;;;17.48;15.13;;;;;;;;;;6260612;28;20044;-60
2022/08/03 14:58:04;;;;;;;;;;;;;;;;;;6260182;28;20053;-60
2022/08/03 15:01:06;;;;;;;16.15;14.38;;;;;;;;;;6265179;28;19928;-61
2022/08/03 15:04:06;;;;;;;15.10;13.50;;;;;;;;;;6267607;28;20049;-60
2022/08/03 15:07:07;;;;;;;15.00;13.50;;;;;;;;;;6269044;28;20076;-61
2022/08/03 15:10:07;;;;;;;15.10;13.60;;;;;;;;;;6264003;28;20045;-60
2022/08/03 15:13:08;;;;;;;16.50;13.60;;;;;;;;;;6264849;28;20717;-61
2022/08/03 15:16:08;;;;;;;18.43;14.30;;;;;;;;;;6260899;28;20052;-60
2022/08/03 15:19:09;;;;;;;15.30;13.80;;;;;;;;;;6264646;28;20484;-60
2022/08/03 15:22:10;;;;;;;15.20;13.60;;;;;;;;;;6263585;28;20057;-59
2022/08/03 15:25:11;;;;;;;16.85;14.60;;;;;;;;;;6258027;28;20140;-67
2022/08/03 15:28:12;;;;;;;16.67;13.95;;;;;;;;;;6265220;28;20041;-61
2022/08/03 15:31:12;;;;;;;16.35;14.00;;;;;;;;;;6264629;28;20187;-58
2022/08/03 15:34:13;;;;;;;17.87;14.27;;;;;;;;;;6258860;28;20049;-59
2022/08/03 15:37:14;;;;;;;16.23;14.50;;;;;;;;;;6263092;28;21463;-61
2022/08/03 15:40:14;;;;;;;15.37;13.77;;;;;;;;;;6264357;28;20708;-60
2022/08/03 15:43:15;;;;;;;20.98;15.20;;;;;;;;;;6262715;28;20582;-59
2022/08/03 15:46:15;;;;;;;23.57;16.10;;;;;;;;;;6263614;28;20053;-60
2022/08/03 15:49:16;;;;;;;16.13;14.07;;;;;;;;;;6263211;28;20375;-58
2022/08/03 15:52:16;;;;;;;15.60;13.43;;;;;;;;;;6267767;28;20055;-60
2022/08/03 15:55:18;;;;;;;15.18;13.65;;;;;;;;;;6264900;28;20306;-59
2022/08/03 15:58:18;;;;;;;15.55;13.88;;;;;;;;;;6262980;28;20041;-59
2022/08/03 16:01:20;;;;;;;15.77;13.90;;;;;;;;;;6269530;28;20059;-60
2022/08/03 16:04:20;;;;;;;;;;;;;;;;;;6260363;28;20124;-60
2022/08/03 16:07:41;;;;;;;16.60;14.27;;;;;;;;;;6263417;28;21416;-58
2022/08/03 16:10:41;;;;;;;16.77;14.03;;;;;;;;;;6263284;28;20499;-61
2022/08/03 16:13:42;;;;;;;21.02;14.70;;;;;;;;;;6262509;28;20114;-59
2022/08/03 16:16:42;;;;;;;14.02;12.63;;;;;;;;;;6263007;28;20458;-59
2022/08/03 16:19:43;;;;;;;14.48;11.88;;;;;;;;;;6267154;28;20041;-60
2022/08/03 16:22:46;;;;;;;14.90;11.57;;;;;;;;;;6262360;28;20049;-60
2022/08/03 16:25:47;;;;;;;12.27;11.00;;;;;;;;;;6261622;28;20141;-58
2022/08/03 16:28:47;;;;;;;13.37;11.13;;;;;;;;;;6259993;28;20041;-59
2022/08/03 16:31:48;;;;;;;15.57;11.20;;;;;;;;;;6260971;28;20401;-59
2022/08/03 16:34:48;;;;;;;14.30;11.43;;;;;;;;;;6261186;28;20041;-60
2022/08/03 16:37:49;;;;;;;18.25;12.27;;;;;;;;;;6270734;28;20370;-60
2022/08/03 16:40:50;;;;;;;16.25;11.80;;;;;;;;;;6262719;28;20068;-59
2022/08/03 16:43:51;;;;;;;12.23;11.00;;;;;;;;;;6261167;28;20104;-60
2022/08/03 16:46:51;;;;;;;12.83;11.43;;;;;;;;;;6257758;28;20477;-58
2022/08/03 16:49:52;;;;;;;13.02;11.63;;;;;;;;;;6264218;28;20060;-60
2022/08/03 16:52:53;;;;;;;14.18;11.57;;;;;;;;;;6262342;28;20060;-60
2022/08/03 16:55:53;;;;;;;14.60;12.60;;;;;;;;;;6263229;28;20675;-58
2022/08/03 16:58:54;;;;;;;14.40;12.90;;;;;;;;;;6265196;28;20096;-59
2022/08/03 17:01:54;;;;;;;14.63;13.10;;;;;;;;;;6262728;28;20298;-60
2022/08/03 17:04:56;;;;;;;15.52;13.23;;;;;;;;;;6264468;28;20056;-60
2022/08/03 17:07:57;;;;;;;15.55;13.60;;;;;;;;;;6258703;28;20048;-59
2022/08/03 17:10:58;;;;;;;14.40;12.90;;;;;;;;;;6260631;28;20048;-59
2022/08/03 17:13:58;;;;;;;16.10;12.77;;;;;;;;;;6265706;28;20768;-60
2022/08/03 17:17:02;;;;;;;27.10;14.68;;;;;;;;;;6260030;28;21064;-59
2022/08/03 17:20:07;;;;;;;21.73;13.82;;;;;;;;;;6262437;28;20156;-61
2022/08/03 17:23:26;;;;;;;17.70;13.27;;;;;;;;;;6262994;28;20071;-62
2022/08/03 17:26:27;;;;;;;14.68;12.43;;;;;;;;;;6261163;28;20053;-61
2022/08/03 17:29:31;;;;;;;16.55;12.23;;;;;;;;;;6258625;28;20052;-60
2022/08/03 17:32:33;;;;;;;15.05;12.05;;;;;;;;;;6264781;28;20120;-54
2022/08/03 17:35:33;;;;;;;14.20;12.60;;;;;;;;;;6266471;28;20499;-59
2022/08/03 17:38:39;;;;;;;15.88;12.50;;;;;;;;;;6262678;28;20052;-60
2022/08/03 17:41:40;;;;;;;22.30;13.05;;;;;;;;;;6259175;28;20057;-58
2022/08/03 17:44:43;;;;;;;14.98;12.52;;;;;;;;;;6262243;28;20508;-58
2022/08/03 17:47:43;;;;;;;13.63;12.23;;;;;;;;;;6261119;28;20053;-60
2022/08/03 17:50:49;;;;;;;15.10;11.87;;;;;;;;;;6263850;28;20533;-60
2022/08/03 17:54:22;;;;;;;15.80;12.55;;;;;;;;;;6262976;28;20305;-60
2022/08/03 17:57:40;;;;;;;14.50;13.00;;;;;;;;;;6257653;28;20060;-60
2022/08/03 18:04:06;;;;;;;16.92;13.60;;;;;;;;;;6258110;28;20484;-61